Time;durP1;ratioP1;P1;durP2;ratioP2;P2;SDS_P1;SDS_P2;PMS_P1;PMS_P2;Temp;Humidity;BMP_temperature;BMP_pressure;BME280_temperature;BME280_humidity;BME280_pressure;Samples;Min_cycle;Max_cycle;Signal;HPM_P1;HPM_P2
2023/02/20 00:01:00;;;;;;;12.53;6.57;;;6.40;99.90;;;;;;5057251;28;20670;-93
2023/02/20 00:03:29;;;;;;;12.47;6.80;;;6.30;99.90;;;;;;5054182;28;20201;-93
2023/02/20 00:05:56;;;;;;;12.97;6.83;;;6.30;99.90;;;;;;5039637;28;20209;-93
2023/02/20 00:08:23;;;;;;;11.13;6.63;;;6.30;99.90;;;;;;5056302;28;20266;-92
2023/02/20 00:10:50;;;;;;;13.57;6.63;;;6.40;99.90;;;;;;5050614;28;20219;-93
2023/02/20 00:13:17;;;;;;;11.00;6.50;;;6.50;99.90;;;;;;5052128;28;20682;-93
2023/02/20 00:15:44;;;;;;;15.33;7.23;;;6.50;99.90;;;;;;5054237;28;20218;-93
2023/02/20 00:18:11;;;;;;;11.10;6.90;;;6.50;99.90;;;;;;5040323;28;20678;-92
2023/02/20 00:20:39;;;;;;;12.63;6.40;;;6.60;99.90;;;;;;5056971;28;20229;-92
2023/02/20 00:23:06;;;;;;;13.57;6.87;;;6.50;99.90;;;;;;5043502;28;20655;-93
2023/02/20 00:25:33;;;;;;;12.90;6.80;;;6.50;99.90;;;;;;5045595;28;20286;-93
2023/02/20 00:28:00;;;;;;;10.97;6.03;;;6.60;99.90;;;;;;5056238;28;20211;-93
2023/02/20 00:30:27;;;;;;;12.87;7.20;;;6.60;99.90;;;;;;5051323;28;20230;-91
2023/02/20 00:32:55;;;;;;;13.13;6.93;;;6.60;99.90;;;;;;5038420;28;20208;-92
2023/02/20 00:35:24;;;;;;;11.47;6.47;;;6.60;99.90;;;;;;5053933;28;20232;-93
2023/02/20 00:37:54;;;;;;;11.07;6.37;;;6.60;99.90;;;;;;5055706;28;20683;-93
2023/02/20 00:40:26;;;;;;;11.07;6.10;;;6.70;99.90;;;;;;5055107;28;20644;-93
2023/02/20 00:42:53;;;;;;;12.00;6.23;;;6.70;99.90;;;;;;5055778;28;20219;-92
2023/02/20 00:45:20;;;;;;;10.60;6.30;;;6.60;99.90;;;;;;5053881;28;20279;-92
2023/02/20 00:47:47;;;;;;;10.97;6.10;;;6.60;99.90;;;;;;5054530;28;20290;-92
2023/02/20 00:50:16;;;;;;;10.83;6.13;;;6.70;99.90;;;;;;5048776;28;20279;-92
2023/02/20 00:52:43;;;;;;;10.00;5.83;;;6.60;99.90;;;;;;5034312;28;20669;-92
2023/02/20 00:55:11;;;;;;;9.80;5.80;;;6.60;99.90;;;;;;5045588;28;20199;-93
2023/02/20 00:57:38;;;;;;;10.20;6.03;;;6.60;99.90;;;;;;5055262;28;20302;-93
2023/02/20 01:00:06;;;;;;;10.00;5.93;;;6.60;99.90;;;;;;5053037;28;20227;-92
2023/02/20 01:02:33;;;;;;;10.03;5.50;;;6.60;99.90;;;;;;5050184;28;20230;-92
2023/02/20 01:05:00;;;;;;;11.60;6.33;;;6.60;99.90;;;;;;5053321;28;20625;-92
2023/02/20 01:07:27;;;;;;;12.23;6.90;;;6.60;99.90;;;;;;5047112;28;20764;-91
2023/02/20 01:09:54;;;;;;;11.63;6.37;;;6.60;99.90;;;;;;5045781;28;20199;-93
2023/02/20 01:12:22;;;;;;;10.93;6.07;;;6.70;99.90;;;;;;5053889;28;20574;-92
2023/02/20 01:14:49;;;;;;;12.43;6.37;;;6.70;99.90;;;;;;5035816;28;20725;-92
2023/02/20 01:17:16;;;;;;;11.63;6.40;;;6.70;99.90;;;;;;5033925;28;20283;-92
2023/02/20 01:19:44;;;;;;;13.33;6.93;;;6.70;99.90;;;;;;5047560;28;20652;-94
2023/02/20 01:22:11;;;;;;;9.83;5.87;;;6.70;99.90;;;;;;5055283;28;20207;-92
2023/02/20 01:24:38;;;;;;;10.53;6.17;;;6.60;99.90;;;;;;5054311;28;20218;-93
2023/02/20 01:27:05;;;;;;;9.50;6.23;;;6.70;99.90;;;;;;5054835;28;20203;-93
2023/02/20 01:29:33;;;;;;;11.93;6.67;;;6.70;99.90;;;;;;5052762;28;20644;-92
2023/02/20 01:32:00;;;;;;;11.27;5.90;;;6.60;99.90;;;;;;5053489;28;20231;-92
2023/02/20 01:34:28;;;;;;;9.73;5.97;;;6.60;99.90;;;;;;5053619;28;20237;-93
2023/02/20 01:36:56;;;;;;;10.73;6.47;;;6.70;99.90;;;;;;5044352;28;20203;-93
2023/02/20 01:39:24;;;;;;;11.73;6.63;;;6.70;99.90;;;;;;5054312;28;20285;-93
2023/02/20 01:42:01;;;;;;;13.00;6.23;;;6.70;99.90;;;;;;5060553;28;20237;-91
2023/02/20 01:44:30;;;;;;;10.50;5.90;;;6.70;99.90;;;;;;5055439;28;20297;-93
2023/02/20 01:46:59;;;;;;;9.60;5.67;;;6.70;99.90;;;;;;5055028;28;20217;-93
2023/02/20 01:49:32;;;;;;;10.27;5.83;;;6.70;99.90;;;;;;5055867;28;20249;-92
2023/02/20 01:52:05;;;;;;;8.53;5.60;;;6.60;99.90;;;;;;5055086;28;20317;-93
2023/02/20 01:54:34;;;;;;;7.87;5.07;;;6.60;99.90;;;;;;5058779;28;20237;-93
2023/02/20 01:57:04;;;;;;;9.57;5.57;;;6.70;99.90;;;;;;5056403;28;20256;-93
2023/02/20 01:59:34;;;;;;;9.53;6.03;;;6.70;99.90;;;;;;5055863;28;20215;-93
2023/02/20 02:02:04;;;;;;;7.80;5.30;;;6.60;99.90;;;;;;5054926;28;20245;-92
2023/02/20 02:04:31;;;;;;;7.97;5.70;;;6.60;99.90;;;;;;5052982;28;20198;-92
2023/02/20 02:06:59;;;;;;;12.77;6.30;;;6.50;99.90;;;;;;5040521;28;20698;-92
2023/02/20 02:09:37;;;;;;;10.13;5.40;;;6.60;99.90;;;;;;5043070;28;20679;-93
2023/02/20 02:12:04;;;;;;;10.40;6.60;;;6.50;99.90;;;;;;5047746;28;20629;-93
2023/02/20 02:14:31;;;;;;;11.73;6.60;;;6.50;99.90;;;;;;5048348;28;20266;-93
2023/02/20 02:17:12;;;;;;;10.43;6.80;;;6.60;99.90;;;;;;5056540;28;20285;-92
2023/02/20 02:20:07;;;;;;;13.67;8.50;;;6.40;99.90;;;;;;5052292;28;20213;-92
2023/02/20 02:23:06;;;;;;;13.73;7.47;;;6.40;99.90;;;;;;5054946;28;20207;-91
2023/02/20 02:25:47;;;;;;;13.63;8.03;;;6.40;99.90;;;;;;5047899;28;20206;-93
2023/02/20 02:28:49;;;;;;;13.63;7.77;;;6.30;99.90;;;;;;5057209;28;20202;-93
2023/02/20 02:32:10;;;;;;;14.57;8.07;;;6.30;99.90;;;;;;5052104;28;20221;-92
2023/02/20 02:35:29;;;;;;;13.10;7.43;;;6.30;99.90;;;;;;5002589;28;20266;-93
2023/02/20 02:38:04;;;;;;;15.73;8.47;;;6.20;99.90;;;;;;5037235;28;20294;-93
2023/02/20 02:40:41;;;;;;;15.33;8.33;;;6.20;99.90;;;;;;5043510;28;20230;-92
2023/02/20 02:43:13;;;;;;;15.77;8.10;;;6.10;99.90;;;;;;5061484;28;20217;-93
2023/02/20 02:45:46;;;;;;;16.23;9.00;;;6.10;99.90;;;;;;5054960;28;20735;-92
2023/02/20 02:48:20;;;;;;;16.87;9.00;;;6.10;99.90;;;;;;5053735;28;20248;-92
2023/02/20 02:50:49;;;;;;;15.97;8.10;;;6.00;99.90;;;;;;5056339;28;20703;-93
2023/02/20 02:53:18;;;;;;;18.23;9.57;;;6.00;99.90;;;;;;5057448;28;20203;-93
2023/02/20 02:55:45;;;;;;;18.60;9.77;;;6.00;99.90;;;;;;5057453;28;20222;-93
2023/02/20 02:58:14;;;;;;;17.50;9.90;;;6.00;99.90;;;;;;5057860;28;20209;-92
2023/02/20 03:00:45;;;;;;;17.60;9.77;;;6.10;99.90;;;;;;5053946;28;20245;-92
2023/02/20 03:03:16;;;;;;;17.77;10.03;;;6.00;99.90;;;;;;5053374;28;20203;-92
2023/02/20 03:05:50;;;;;;;17.53;9.53;;;6.10;99.90;;;;;;5052856;28;20251;-93
2023/02/20 03:08:30;;;;;;;19.33;10.50;;;6.00;99.90;;;;;;5050523;28;20269;-92
2023/02/20 03:11:01;;;;;;;19.13;10.43;;;6.00;99.90;;;;;;5044896;28;20219;-93
2023/02/20 03:16:21;;;;;;;19.87;11.27;;;6.20;99.90;;;;;;5053640;28;20281;-93
2023/02/20 03:18:50;;;;;;;19.83;11.80;;;6.30;99.90;;;;;;5040626;28;20203;-93
2023/02/20 03:21:20;;;;;;;19.80;12.47;;;6.30;99.90;;;;;;5045629;28;20238;-93
2023/02/20 03:23:53;;;;;;;21.93;13.10;;;6.40;99.90;;;;;;5053337;28;20286;-93
2023/02/20 03:26:26;;;;;;;23.57;14.00;;;6.50;99.90;;;;;;5057428;28;20469;-92
2023/02/20 03:28:59;;;;;;;23.17;14.73;;;6.50;99.90;;;;;;5055466;28;20206;-92
2023/02/20 03:31:31;;;;;;;25.93;15.70;;;6.60;99.90;;;;;;5043810;28;20222;-93
2023/02/20 03:45:18;;;;;;;26.27;14.83;;;6.60;99.90;;;;;;5053188;28;20210;-90
2023/02/20 03:47:49;;;;;;;24.70;14.83;;;6.60;99.90;;;;;;5056206;28;20199;-91
2023/02/20 03:53:00;;;;;;;22.30;13.53;;;6.50;99.90;;;;;;5040778;28;20207;-91
2023/02/20 03:55:29;;;;;;;24.57;13.67;;;6.60;99.90;;;;;;5045078;28;20534;-89
2023/02/20 03:58:00;;;;;;;21.97;13.83;;;6.80;99.90;;;;;;5055080;28;20219;-89
2023/02/20 04:00:30;;;;;;;25.37;14.87;;;6.70;99.90;;;;;;5055360;28;20294;-89
2023/02/20 04:03:07;;;;;;;21.97;13.73;;;6.80;99.90;;;;;;5038312;28;20200;-92
2023/02/20 04:05:40;;;;;;;24.83;14.60;;;6.90;99.90;;;;;;5050111;28;20311;-91
2023/02/20 04:08:10;;;;;;;22.57;13.93;;;6.90;99.90;;;;;;5042744;28;20221;-92
2023/02/20 04:10:43;;;;;;;21.90;12.80;;;6.80;99.90;;;;;;5057166;28;20223;-91
2023/02/20 04:13:12;;;;;;;21.53;13.53;;;6.90;99.90;;;;;;5046779;28;20200;-91
2023/02/20 04:15:40;;;;;;;23.07;13.37;;;6.80;99.90;;;;;;5048759;28;20265;-92
2023/02/20 04:18:12;;;;;;;24.83;14.13;;;6.90;99.90;;;;;;5069044;28;20282;-91
2023/02/20 04:20:39;;;;;;;22.80;13.90;;;6.90;99.90;;;;;;5037830;28;20772;-92
2023/02/20 04:23:16;;;;;;;22.63;13.13;;;6.90;99.90;;;;;;5036921;28;20215;-92
2023/02/20 04:25:51;;;;;;;23.10;13.60;;;6.90;99.90;;;;;;5053733;28;20218;-92
2023/02/20 04:28:25;;;;;;;22.03;13.93;;;7.00;99.90;;;;;;5045720;28;20281;-91
2023/02/20 04:30:55;;;;;;;24.10;13.17;;;7.00;99.90;;;;;;5056715;28;20213;-92
2023/02/20 04:33:23;;;;;;;22.00;12.27;;;6.90;99.90;;;;;;5040083;28;20234;-91
2023/02/20 04:35:58;;;;;;;21.63;11.93;;;7.00;99.90;;;;;;5035356;28;20310;-91
2023/02/20 04:38:25;;;;;;;21.60;11.83;;;7.10;99.90;;;;;;5035530;28;20292;-91
2023/02/20 04:40:54;;;;;;;21.50;12.00;;;7.10;99.90;;;;;;5035570;28;20216;-91
2023/02/20 04:43:24;;;;;;;22.60;12.83;;;7.10;99.90;;;;;;5036013;28;20286;-91
2023/02/20 04:45:51;;;;;;;22.50;12.33;;;7.10;99.90;;;;;;5035819;28;20215;-91
2023/02/20 04:48:22;;;;;;;22.47;12.67;;;7.00;99.90;;;;;;5035753;28;20208;-90
2023/02/20 04:50:52;;;;;;;22.53;12.60;;;6.90;99.90;;;;;;5035691;28;20224;-91
2023/02/20 04:53:24;;;;;;;22.43;12.67;;;6.80;99.90;;;;;;5035959;28;20207;-90
2023/02/20 04:56:00;;;;;;;22.23;12.10;;;6.80;99.90;;;;;;5035514;28;20238;-91
2023/02/20 04:58:26;;;;;;;22.60;11.77;;;6.70;99.90;;;;;;5037209;28;20298;-91
2023/02/20 05:00:53;;;;;;;22.07;12.47;;;6.70;99.90;;;;;;5037090;28;20231;-91
2023/02/20 05:03:21;;;;;;;21.77;11.70;;;6.70;99.90;;;;;;5035879;28;20211;-91
2023/02/20 05:05:48;;;;;;;19.40;10.73;;;6.80;99.90;;;;;;5036333;28;20290;-90
2023/02/20 05:08:15;;;;;;;18.03;10.63;;;6.90;99.90;;;;;;5036514;28;20204;-91
2023/02/20 05:10:42;;;;;;;19.53;10.97;;;6.90;99.90;;;;;;5036273;28;20673;-91
2023/02/20 05:13:11;;;;;;;19.13;11.17;;;6.70;99.90;;;;;;5035432;28;20271;-91
2023/02/20 05:15:40;;;;;;;19.20;10.43;;;7.00;99.90;;;;;;5034946;28;20210;-91
2023/02/20 05:18:07;;;;;;;19.93;11.17;;;6.80;99.90;;;;;;5035287;28;20673;-91
2023/02/20 05:23:18;;;;;;;18.90;11.23;;;6.90;99.90;;;;;;5035823;28;20198;-90
2023/02/20 05:25:47;;;;;;;19.33;10.27;;;7.00;99.90;;;;;;5035117;28;20770;-91
2023/02/20 05:28:19;;;;;;;18.30;10.17;;;7.00;99.90;;;;;;5034934;28;20531;-90
2023/02/20 05:30:46;;;;;;;20.47;11.37;;;7.00;99.90;;;;;;5033799;28;20716;-91
2023/02/20 05:33:15;;;;;;;21.60;10.53;;;7.00;99.90;;;;;;5034387;28;20211;-91
2023/02/20 05:35:43;;;;;;;21.73;10.43;;;7.00;99.90;;;;;;5034741;28;20672;-90
2023/02/20 05:38:16;;;;;;;20.77;10.23;;;7.10;99.90;;;;;;5035104;28;20217;-90
2023/02/20 05:40:46;;;;;;;18.33;9.93;;;6.90;99.90;;;;;;5034396;28;20372;-92
2023/02/20 05:43:13;;;;;;;19.13;10.00;;;7.00;99.90;;;;;;5043197;28;20203;-91
2023/02/20 05:45:42;;;;;;;20.60;10.90;;;7.10;99.90;;;;;;5055673;28;20715;-91
2023/02/20 05:48:11;;;;;;;18.03;10.23;;;7.00;99.90;;;;;;5053645;28;20205;-92
2023/02/20 05:50:50;;;;;;;18.30;10.10;;;7.00;99.90;;;;;;5063707;28;20257;-91
2023/02/20 05:53:17;;;;;;;16.67;9.40;;;7.10;99.90;;;;;;5053272;28;20233;-92
2023/02/20 05:55:44;;;;;;;21.03;10.47;;;6.90;99.90;;;;;;5046153;28;20236;-89
2023/02/20 05:58:11;;;;;;;19.23;9.23;;;7.00;99.90;;;;;;5048348;28;20672;-91
2023/02/20 06:00:38;;;;;;;19.30;9.73;;;7.00;99.90;;;;;;5054196;28;20257;-90
2023/02/20 06:03:10;;;;;;;19.73;9.23;;;7.10;99.90;;;;;;5053575;28;20223;-90
2023/02/20 06:05:37;;;;;;;18.10;8.50;;;7.10;99.90;;;;;;5052236;28;20298;-91
2023/02/20 06:08:05;;;;;;;14.47;7.80;;;7.10;99.90;;;;;;5053764;28;20563;-90
2023/02/20 06:10:32;;;;;;;17.17;8.80;;;7.10;99.90;;;;;;5052992;28;20798;-90
2023/02/20 06:13:08;;;;;;;18.00;8.37;;;7.20;99.90;;;;;;5053583;28;20198;-90
2023/02/20 06:15:35;;;;;;;16.33;8.40;;;7.20;99.90;;;;;;5053610;28;20206;-91
2023/02/20 06:18:02;;;;;;;16.27;8.20;;;7.20;99.90;;;;;;5054424;28;20686;-91
2023/02/20 06:20:31;;;;;;;18.20;7.40;;;7.30;99.90;;;;;;5053808;28;20226;-90
2023/02/20 06:22:58;;;;;;;17.27;8.13;;;7.40;99.90;;;;;;5054153;28;20754;-90
2023/02/20 06:25:26;;;;;;;16.10;7.80;;;7.20;99.90;;;;;;5043225;28;20673;-91
2023/02/20 06:27:53;;;;;;;13.73;6.97;;;7.20;99.90;;;;;;5037081;28;20214;-89
2023/02/20 06:30:21;;;;;;;14.10;6.47;;;7.20;99.90;;;;;;5053505;28;20243;-92
2023/02/20 06:32:48;;;;;;;12.33;6.23;;;7.30;99.90;;;;;;5052825;28;20256;-90
2023/02/20 06:35:16;;;;;;;14.83;6.60;;;7.30;99.90;;;;;;5053866;28;20215;-91
2023/02/20 06:37:44;;;;;;;13.17;6.40;;;7.30;99.90;;;;;;5053673;28;20221;-90
2023/02/20 06:40:12;;;;;;;15.37;6.77;;;7.30;99.90;;;;;;5053877;28;20282;-91
2023/02/20 06:42:39;;;;;;;11.40;6.03;;;7.40;99.90;;;;;;5057345;28;20211;-91
2023/02/20 06:45:06;;;;;;;10.63;5.70;;;7.30;99.90;;;;;;5053892;28;20590;-91
2023/02/20 06:47:33;;;;;;;15.97;6.30;;;7.40;99.90;;;;;;5053349;28;20210;-91
2023/02/20 06:50:01;;;;;;;11.97;5.90;;;7.60;99.90;;;;;;5053841;28;20223;-91
2023/02/20 06:52:29;;;;;;;13.63;5.87;;;7.50;99.90;;;;;;5053331;28;20214;-90
2023/02/20 06:54:58;;;;;;;12.90;5.73;;;7.50;99.90;;;;;;5054044;28;20212;-92
2023/02/20 06:57:25;;;;;;;13.50;5.93;;;7.50;99.90;;;;;;5053802;28;20289;-91
2023/02/20 06:59:52;;;;;;;12.03;5.97;;;7.60;99.90;;;;;;5054304;28;20668;-91
2023/02/20 07:02:19;;;;;;;12.77;6.17;;;7.60;99.90;;;;;;5058208;28;20250;-91
2023/02/20 07:04:49;;;;;;;13.87;6.27;;;7.60;99.90;;;;;;5056850;28;20207;-90
2023/02/20 07:07:16;;;;;;;12.57;6.10;;;7.70;99.90;;;;;;5053283;28;20206;-91
2023/02/20 07:09:43;;;;;;;14.47;5.83;;;7.60;99.90;;;;;;5057957;28;20290;-92
2023/02/20 07:12:11;;;;;;;13.67;6.47;;;7.50;99.90;;;;;;5057153;28;20288;-90
2023/02/20 07:14:38;;;;;;;14.80;6.40;;;7.50;99.90;;;;;;5057477;28;20668;-90
2023/02/20 07:17:05;;;;;;;13.33;6.20;;;7.70;99.90;;;;;;5057257;28;20211;-90
2023/02/20 07:19:32;;;;;;;14.37;7.07;;;7.60;99.90;;;;;;5056502;28;20291;-90
2023/02/20 07:22:00;;;;;;;12.23;5.77;;;7.60;99.90;;;;;;5057651;28;20221;-91
2023/02/20 07:24:35;;;;;;;12.87;6.40;;;7.50;99.90;;;;;;5057045;28;20232;-91
2023/02/20 07:27:02;;;;;;;13.03;6.33;;;7.50;99.90;;;;;;5057887;28;20226;-91
2023/02/20 07:29:31;;;;;;;12.30;5.80;;;7.60;99.90;;;;;;5057528;28;20237;-90
2023/02/20 07:31:58;;;;;;;12.23;5.87;;;7.70;99.90;;;;;;5056601;28;20223;-93
2023/02/20 07:34:25;;;;;;;11.03;5.53;;;7.70;99.90;;;;;;5055937;28;20213;-90
2023/02/20 07:36:52;;;;;;;11.10;5.43;;;7.80;99.90;;;;;;5056888;28;20238;-91
2023/02/20 07:39:18;;;;;;;10.83;5.60;;;7.90;99.90;;;;;;5057784;28;20199;-90
2023/02/20 07:41:46;;;;;;;12.40;5.67;;;8.00;99.90;;;;;;5056554;28;20218;-90
2023/02/20 07:44:13;;;;;;;10.43;5.27;;;8.10;99.90;;;;;;5057775;28;20211;-90
2023/02/20 07:46:42;;;;;;;14.07;5.93;;;8.10;99.90;;;;;;5062852;28;20211;-90
2023/02/20 07:49:09;;;;;;;10.60;4.77;;;8.10;99.90;;;;;;5070612;28;20259;-90
2023/02/20 07:51:36;;;;;;;11.00;5.60;;;8.20;99.90;;;;;;5072168;28;20214;-90
2023/02/20 07:54:03;;;;;;;12.10;5.97;;;8.10;99.90;;;;;;5072163;28;20211;-90
2023/02/20 07:56:30;;;;;;;13.63;6.90;;;8.10;99.90;;;;;;5056059;28;20211;-92
2023/02/20 07:58:57;;;;;;;13.60;6.27;;;8.10;99.90;;;;;;5066487;28;20274;-90
2023/02/20 08:01:24;;;;;;;16.10;7.23;;;8.10;99.90;;;;;;5072883;28;20257;-91
2023/02/20 08:03:52;;;;;;;12.07;6.33;;;8.20;99.90;;;;;;5063693;28;20230;-91
2023/02/20 08:06:22;;;;;;;14.37;6.93;;;8.20;99.90;;;;;;5057281;28;20532;-91
2023/02/20 08:08:49;;;;;;;13.67;6.63;;;8.20;99.90;;;;;;5056523;28;20207;-91
2023/02/20 08:11:16;;;;;;;14.33;7.47;;;8.20;99.90;;;;;;5054898;28;20301;-90
2023/02/20 08:13:44;;;;;;;17.00;8.57;;;8.20;99.90;;;;;;5055597;28;20199;-90
2023/02/20 08:16:11;;;;;;;18.20;8.03;;;8.10;99.90;;;;;;5056454;28;20215;-92
2023/02/20 08:18:38;;;;;;;17.07;8.07;;;8.10;99.90;;;;;;5055988;28;20210;-91
2023/02/20 08:21:07;;;;;;;18.57;8.77;;;8.20;99.90;;;;;;5056185;28;20707;-91
2023/02/20 08:23:34;;;;;;;14.97;8.57;;;8.20;99.90;;;;;;5056544;28;20219;-91
2023/02/20 08:26:02;;;;;;;15.03;8.07;;;8.20;99.90;;;;;;5057085;28;20206;-91
2023/02/20 08:28:29;;;;;;;17.97;9.33;;;8.20;99.90;;;;;;5055450;28;20314;-91
2023/02/20 08:30:56;;;;;;;16.37;9.10;;;8.30;99.90;;;;;;5055316;28;20223;-91
2023/02/20 08:33:23;;;;;;;15.90;8.90;;;8.30;99.90;;;;;;5054611;28;20675;-92
2023/02/20 08:35:52;;;;;;;16.57;9.33;;;8.30;99.90;;;;;;5055624;28;20206;-91
2023/02/20 08:38:27;;;;;;;18.17;9.57;;;8.30;99.90;;;;;;5055530;28;20587;-91
2023/02/20 08:40:54;;;;;;;19.67;10.10;;;8.30;99.90;;;;;;5054494;28;20309;-91
2023/02/20 08:43:22;;;;;;;19.60;10.00;;;8.30;99.90;;;;;;5054875;28;20229;-91
2023/02/20 08:45:49;;;;;;;19.23;9.83;;;8.20;99.90;;;;;;5055298;28;20278;-91
2023/02/20 08:48:15;;;;;;;17.83;10.70;;;8.30;99.90;;;;;;5054094;28;20683;-91
2023/02/20 08:50:42;;;;;;;19.93;11.13;;;8.40;99.90;;;;;;5054689;28;20231;-91
2023/02/20 08:53:09;;;;;;;20.70;11.73;;;8.40;99.90;;;;;;5055127;28;20213;-90
2023/02/20 08:55:38;;;;;;;20.20;12.10;;;8.50;99.90;;;;;;5054391;28;20213;-91
2023/02/20 08:58:05;;;;;;;22.23;12.37;;;8.70;99.90;;;;;;5055384;28;20271;-90
2023/02/20 09:00:32;;;;;;;20.93;11.87;;;8.80;99.90;;;;;;5055005;28;20231;-90
2023/02/20 09:03:05;;;;;;;22.20;12.43;;;8.90;99.90;;;;;;5053432;28;20482;-91
2023/02/20 09:05:33;;;;;;;25.10;13.20;;;8.60;99.90;;;;;;5055278;28;20250;-91
2023/02/20 09:08:00;;;;;;;21.50;12.17;;;8.60;99.90;;;;;;5054494;28;20199;-91
2023/02/20 09:10:27;;;;;;;22.93;13.23;;;8.60;99.90;;;;;;5054289;28;20712;-91
2023/02/20 09:12:55;;;;;;;22.30;12.57;;;8.60;99.90;;;;;;5053448;28;20614;-91
2023/02/20 09:15:22;;;;;;;21.17;12.67;;;8.70;99.90;;;;;;5053419;28;20203;-91
2023/02/20 09:17:50;;;;;;;24.13;14.10;;;8.80;99.90;;;;;;5053180;28;20586;-90
2023/02/20 09:20:19;;;;;;;21.77;14.43;;;8.80;99.90;;;;;;5054200;28;20313;-91
2023/02/20 09:22:46;;;;;;;22.67;12.67;;;8.90;99.90;;;;;;5053031;28;20238;-91
2023/02/20 09:25:14;;;;;;;25.43;13.77;;;9.00;99.90;;;;;;5053746;28;20207;-91
2023/02/20 09:27:41;;;;;;;22.70;12.93;;;9.00;99.90;;;;;;5038721;28;20299;-91
2023/02/20 09:30:16;;;;;;;23.37;14.33;;;8.90;99.90;;;;;;5054046;28;20222;-92
2023/02/20 09:32:43;;;;;;;23.47;14.83;;;9.00;99.90;;;;;;5052343;28;20221;-91
2023/02/20 09:35:13;;;;;;;26.13;15.80;;;9.00;99.90;;;;;;5053522;28;20214;-90
2023/02/20 09:37:40;;;;;;;28.30;15.70;;;9.00;99.90;;;;;;5053691;28;20631;-91
2023/02/20 09:40:07;;;;;;;23.73;15.03;;;9.10;99.90;;;;;;5053707;28;20241;-91
2023/02/20 09:42:43;;;;;;;26.30;15.37;;;9.10;99.90;;;;;;5053245;28;20223;-91
2023/02/20 09:45:16;;;;;;;27.43;16.10;;;9.20;99.90;;;;;;5053654;28;20220;-91
2023/02/20 09:48:01;;;;;;;27.23;16.33;;;9.10;99.90;;;;;;5053287;28;20613;-91
2023/02/20 09:50:35;;;;;;;28.03;16.30;;;9.10;99.90;;;;;;5053365;28;20237;-91
2023/02/20 09:53:18;;;;;;;29.00;17.63;;;9.20;99.90;;;;;;5052835;28;20236;-91
2023/02/20 09:55:45;;;;;;;27.53;14.20;;;9.10;99.90;;;;;;5053054;28;20203;-91
2023/02/20 09:58:21;;;;;;;27.13;17.17;;;9.10;99.90;;;;;;5052900;28;20602;-91
2023/02/20 10:00:51;;;;;;;24.53;17.20;;;9.30;99.90;;;;;;5042836;28;20226;-91
2023/02/20 10:03:26;;;;;;;27.13;17.53;;;9.30;99.90;;;;;;5050608;28;20712;-91
2023/02/20 10:05:55;;;;;;;29.10;17.83;;;9.10;99.90;;;;;;5052768;28;20214;-91
2023/02/20 10:08:24;;;;;;;27.37;17.07;;;9.10;99.90;;;;;;5053678;28;20613;-91
2023/02/20 10:10:52;;;;;;;29.40;18.80;;;9.10;99.90;;;;;;5053394;28;20226;-91
2023/02/20 10:13:35;;;;;;;29.40;17.53;;;9.00;99.90;;;;;;5053080;28;20209;-91
2023/02/20 10:16:14;;;;;;;32.50;19.27;;;8.90;99.90;;;;;;5053201;28;20211;-92
2023/02/20 10:18:49;;;;;;;30.87;18.83;;;8.90;99.90;;;;;;5053157;28;20258;-91
2023/02/20 10:21:26;;;;;;;31.47;18.80;;;8.90;99.90;;;;;;5052782;28;20782;-91
2023/02/20 10:24:06;;;;;;;28.80;18.70;;;8.90;99.90;;;;;;5053311;28;20226;-91
2023/02/20 10:26:36;;;;;;;31.70;17.63;;;8.80;99.90;;;;;;5052770;28;20206;-91
2023/02/20 10:29:16;;;;;;;31.40;20.80;;;8.70;99.90;;;;;;5052984;28;20286;-90
2023/02/20 10:31:51;;;;;;;30.70;18.73;;;9.00;99.90;;;;;;5052811;28;20623;-91
2023/02/20 10:34:23;;;;;;;31.90;18.93;;;8.90;99.90;;;;;;5056890;28;20679;-91
2023/02/20 10:36:54;;;;;;;31.60;18.23;;;8.90;99.90;;;;;;5057464;28;20202;-90
2023/02/20 10:39:23;;;;;;;33.30;18.93;;;8.90;99.90;;;;;;5056851;28;20282;-91
2023/02/20 10:41:55;;;;;;;34.20;20.73;;;9.00;99.90;;;;;;5056584;28;20251;-89
2023/02/20 10:44:27;;;;;;;29.37;18.03;;;9.00;99.90;;;;;;5056436;28;20230;-91
2023/02/20 10:47:04;;;;;;;33.07;20.83;;;9.00;99.90;;;;;;5056703;28;20232;-91
2023/02/20 10:49:38;;;;;;;33.10;18.63;;;9.10;99.90;;;;;;5056851;28;20277;-91
2023/02/20 10:52:10;;;;;;;31.20;18.47;;;8.90;99.90;;;;;;5056186;28;20654;-91
2023/02/20 10:54:43;;;;;;;32.63;19.10;;;8.90;99.90;;;;;;5056797;28;20213;-91
2023/02/20 10:57:18;;;;;;;32.53;18.00;;;8.90;99.90;;;;;;5056466;28;20583;-91
2023/02/20 10:59:54;;;;;;;31.40;18.97;;;8.80;99.90;;;;;;5056518;28;20210;-90
2023/02/20 11:02:27;;;;;;;30.93;18.50;;;8.80;99.90;;;;;;5056874;28;20210;-91
2023/02/20 11:04:59;;;;;;;29.20;17.43;;;8.90;99.90;;;;;;5056881;28;20202;-91
2023/02/20 11:07:26;;;;;;;31.37;18.33;;;8.80;99.90;;;;;;5056698;28;20307;-90
2023/02/20 11:09:53;;;;;;;30.07;17.30;;;8.90;99.90;;;;;;5056233;28;20245;-91
2023/02/20 11:12:27;;;;;;;32.33;18.60;;;8.80;99.90;;;;;;5055648;28;20290;-91
2023/02/20 11:14:57;;;;;;;32.63;17.93;;;8.80;99.90;;;;;;5058487;28;20206;-91
2023/02/20 11:17:28;;;;;;;30.33;17.10;;;8.80;99.90;;;;;;5056211;28;20209;-90
2023/02/20 11:19:57;;;;;;;32.00;17.20;;;8.80;99.90;;;;;;5055888;28;20205;-90
2023/02/20 11:22:40;;;;;;;29.93;16.50;;;8.80;99.90;;;;;;5056620;28;20214;-91
2023/02/20 11:25:18;;;;;;;27.93;16.27;;;8.80;99.90;;;;;;5056286;28;20643;-91
2023/02/20 11:27:49;;;;;;;32.20;17.73;;;8.80;99.90;;;;;;5055739;28;20194;-91
2023/02/20 11:30:31;;;;;;;28.67;16.77;;;8.80;99.90;;;;;;5055940;28;20229;-92
2023/02/20 11:33:13;;;;;;;34.33;18.23;;;8.80;99.90;;;;;;5055755;28;20291;-90
2023/02/20 11:35:42;;;;;;;33.87;18.27;;;8.80;99.90;;;;;;5055816;28;20211;-91
2023/02/20 11:38:34;;;;;;;29.97;18.87;;;8.70;99.90;;;;;;5054662;28;20571;-90
2023/02/20 11:41:11;;;;;;;30.57;18.33;;;8.70;99.90;;;;;;5034666;28;20245;-90
2023/02/20 11:43:42;;;;;;;31.97;17.73;;;8.70;99.90;;;;;;5056135;28;20229;-91
2023/02/20 11:46:13;;;;;;;30.27;18.13;;;8.60;99.90;;;;;;5054572;28;20233;-91
2023/02/20 11:48:58;;;;;;;33.07;18.60;;;8.60;99.90;;;;;;5055574;28;20191;-91
2023/02/20 11:51:34;;;;;;;30.77;18.77;;;8.60;99.90;;;;;;5043031;28;20703;-91
2023/02/20 11:54:09;;;;;;;30.87;18.03;;;8.60;99.90;;;;;;5054353;28;20202;-91
2023/02/20 11:56:36;;;;;;;35.37;18.63;;;8.70;99.90;;;;;;5055167;28;20578;-91
2023/02/20 11:59:35;;;;;;;35.10;17.70;;;8.70;99.90;;;;;;5055582;28;20367;-90
2023/02/20 12:02:26;;;;;;;33.90;18.73;;;8.60;99.90;;;;;;5012891;28;20227;-90
2023/02/20 12:05:09;;;;;;;35.03;19.77;;;8.50;99.90;;;;;;5052941;28;20317;-91
2023/02/20 12:07:40;;;;;;;35.57;18.93;;;8.50;99.90;;;;;;5055166;28;20221;-91
2023/02/20 12:10:21;;;;;;;35.00;19.77;;;8.70;99.90;;;;;;5054960;28;20241;-91
2023/02/20 12:12:49;;;;;;;33.03;18.27;;;8.50;99.90;;;;;;5054744;28;20286;-91
2023/02/20 12:15:17;;;;;;;30.67;17.00;;;8.60;99.90;;;;;;5054363;28;20215;-90
2023/02/20 12:18:01;;;;;;;34.57;18.40;;;8.50;99.90;;;;;;5055870;28;20286;-90
2023/02/20 12:20:35;;;;;;;31.17;17.67;;;8.50;99.90;;;;;;5054375;28;20219;-90
2023/02/20 12:23:09;;;;;;;32.73;18.80;;;8.50;99.90;;;;;;5053793;28;20206;-90
2023/02/20 12:25:50;;;;;;;33.70;19.37;;;8.50;99.90;;;;;;5055059;28;20295;-91
2023/02/20 12:28:27;;;;;;;35.87;18.83;;;8.50;99.90;;;;;;5054505;28;20238;-91
2023/02/20 12:31:05;;;;;;;33.30;19.53;;;8.40;99.90;;;;;;5055511;28;20656;-91
2023/02/20 12:33:55;;;;;;;35.07;17.83;;;8.40;99.90;;;;;;5054231;28;20739;-92
2023/02/20 12:36:29;;;;;;;34.37;18.17;;;8.40;99.90;;;;;;5054998;28;20290;-90
2023/02/20 12:39:02;;;;;;;33.27;18.20;;;8.40;99.90;;;;;;5055643;28;20263;-91
2023/02/20 12:41:41;;;;;;;27.83;16.40;;;8.40;99.90;;;;;;5055206;28;20307;-91
2023/02/20 12:44:34;;;;;;;34.40;18.60;;;8.40;99.90;;;;;;5054254;28;20668;-91
2023/02/20 12:47:15;;;;;;;31.30;17.20;;;8.40;99.90;;;;;;5054285;28;20213;-91
2023/02/20 12:49:55;;;;;;;36.70;17.33;;;8.40;99.90;;;;;;5053897;28;20206;-91
2023/02/20 12:53:14;;;;;;;37.73;18.80;;;8.40;99.90;;;;;;5053914;28;20215;-90
2023/02/20 12:56:02;;;;;;;33.43;17.03;;;8.60;99.90;;;;;;4991254;28;20209;-91
2023/02/20 12:58:42;;;;;;;28.63;16.00;;;8.40;99.90;;;;;;4992530;28;20252;-91
2023/02/20 13:01:12;;;;;;;35.93;17.20;;;8.50;99.90;;;;;;5038305;28;20755;-91
2023/02/20 13:03:49;;;;;;;31.90;17.23;;;8.50;99.90;;;;;;5053461;28;20223;-90
2023/02/20 13:06:25;;;;;;;31.87;15.63;;;8.50;99.90;;;;;;5052631;28;20574;-90
2023/02/20 13:09:05;;;;;;;35.73;16.57;;;8.50;99.90;;;;;;5052873;28;20194;-90
2023/02/20 13:11:38;;;;;;;32.63;16.47;;;8.40;99.90;;;;;;5052983;28;20302;-90
2023/02/20 13:14:18;;;;;;;35.60;17.80;;;8.50;99.90;;;;;;5052480;28;20214;-91
2023/02/20 13:16:51;;;;;;;36.37;17.27;;;8.50;99.90;;;;;;5053446;28;20218;-90
2023/02/20 13:19:23;;;;;;;33.70;18.77;;;8.40;99.90;;;;;;5052872;28;20230;-90
2023/02/20 13:21:50;;;;;;;34.07;18.83;;;8.40;99.90;;;;;;5051323;28;20313;-91